Time;durP1;ratioP1;P1;durP2;ratioP2;P2;SDS_P1;SDS_P2;PMS_P1;PMS_P2;Temp;Humidity;BMP_temperature;BMP_pressure;BME280_temperature;BME280_humidity;BME280_pressure;Samples;Min_cycle;Max_cycle;Signal;HPM_P1;HPM_P2
2021/12/09 00:01:23;;;;;;;25.20;17.13;;;;;;;2.24;100.00;98808.47;4969039;28;20295;-60
2021/12/09 00:03:53;;;;;;;22.10;16.80;;;;;;;2.18;100.00;98808.72;4978432;28;20193;-61
2021/12/09 00:06:23;;;;;;;20.73;16.17;;;;;;;2.22;100.00;98811.97;4978417;28;20265;-61
2021/12/09 00:08:49;;;;;;;21.30;15.60;;;;;;;2.17;100.00;98812.19;4975001;28;20189;-61
2021/12/09 00:11:14;;;;;;;18.60;15.57;;;;;;;2.19;100.00;98809.56;4984397;28;20238;-61
2021/12/09 00:13:40;;;;;;;17.60;14.87;;;;;;;2.31;100.00;98815.84;4998200;28;20178;-61
2021/12/09 00:16:05;;;;;;;24.17;15.80;;;;;;;2.11;100.00;98809.88;4990212;28;20260;-61
2021/12/09 00:18:31;;;;;;;24.80;15.27;;;;;;;2.02;100.00;98820.41;5002763;28;20192;-61
2021/12/09 00:20:56;;;;;;;21.20;15.87;;;;;;;1.94;100.00;98813.91;4981186;28;20230;-61
2021/12/09 00:23:22;;;;;;;18.73;14.43;;;;;;;1.74;100.00;98814.69;4991513;28;20229;-62
2021/12/09 00:25:47;;;;;;;21.27;15.23;;;;;;;1.83;100.00;98805.91;4992169;28;20188;-62
2021/12/09 00:28:12;;;;;;;20.67;15.07;;;;;;;1.83;100.00;98813.50;4992038;28;20202;-62
2021/12/09 00:30:38;;;;;;;25.93;15.43;;;;;;;1.83;100.00;98817.78;4957164;28;20271;-62
2021/12/09 00:33:05;;;;;;;22.60;15.57;;;;;;;1.77;100.00;98816.28;4979556;28;20320;-62
2021/12/09 00:35:42;;;;;;;20.20;14.70;;;;;;;1.72;100.00;98820.72;4992263;28;20183;-62
2021/12/09 00:38:09;;;;;;;19.67;15.30;;;;;;;1.61;100.00;98819.44;4992289;28;20201;-62
2021/12/09 00:40:35;;;;;;;23.30;15.40;;;;;;;1.59;100.00;98823.72;4981120;28;20244;-63
2021/12/09 00:43:00;;;;;;;19.10;15.33;;;;;;;1.56;100.00;98831.47;4990931;28;20206;-62
2021/12/09 00:45:26;;;;;;;25.03;15.37;;;;;;;1.28;100.00;98829.94;4982037;28;20553;-62
2021/12/09 00:47:52;;;;;;;20.27;14.60;;;;;;;1.31;100.00;98831.53;4971489;28;20549;-62
2021/12/09 00:50:18;;;;;;;20.87;13.83;;;;;;;1.33;100.00;98834.84;4960947;28;20206;-61
2021/12/09 00:52:44;;;;;;;19.83;14.37;;;;;;;1.42;100.00;98836.22;4970426;28;20176;-62
2021/12/09 00:55:10;;;;;;;18.10;12.93;;;;;;;1.45;100.00;98836.09;4971162;28;20180;-62
2021/12/09 00:57:37;;;;;;;18.33;13.63;;;;;;;1.50;100.00;98838.44;4971266;28;20546;-61
2021/12/09 01:00:10;;;;;;;17.63;12.73;;;;;;;1.40;100.00;98841.34;4966161;28;20246;-62
2021/12/09 01:02:36;;;;;;;22.77;12.93;;;;;;;1.61;100.00;98837.16;4970265;28;20200;-61
2021/12/09 01:05:02;;;;;;;17.00;12.33;;;;;;;1.72;100.00;98839.28;4974965;28;20597;-61
2021/12/09 01:07:27;;;;;;;16.73;12.90;;;;;;;1.40;100.00;98832.91;4991473;28;20275;-61
2021/12/09 01:09:53;;;;;;;20.63;13.47;;;;;;;1.36;100.00;98834.72;4991052;28;20232;-61
2021/12/09 01:12:18;;;;;;;16.73;13.47;;;;;;;1.61;100.00;98838.88;4996488;28;20321;-61
2021/12/09 01:14:44;;;;;;;16.93;13.30;;;;;;;1.63;100.00;98842.19;4991427;28;20179;-62
2021/12/09 01:17:10;;;;;;;14.87;11.00;;;;;;;1.34;100.00;98839.03;4982984;28;20783;-61
2021/12/09 01:19:37;;;;;;;15.93;12.07;;;;;;;1.33;100.00;98842.44;4988654;28;20194;-62
2021/12/09 01:22:03;;;;;;;18.80;11.47;;;;;;;1.53;100.00;98843.41;4980071;28;20253;-61
2021/12/09 01:24:29;;;;;;;22.27;12.77;;;;;;;1.36;100.00;98841.50;4991155;28;20180;-61
2021/12/09 01:26:56;;;;;;;16.23;11.50;;;;;;;1.51;100.00;98845.19;4989873;28;20214;-61
2021/12/09 01:29:30;;;;;;;16.03;11.07;;;;;;;1.46;100.00;98847.88;4991063;28;20179;-61
2021/12/09 01:32:01;;;;;;;15.10;11.30;;;;;;;1.54;100.00;98843.34;4980442;28;20338;-61
2021/12/09 01:34:26;;;;;;;17.03;11.67;;;;;;;1.62;100.00;98853.19;4991556;28;20195;-61
2021/12/09 01:36:52;;;;;;;15.53;10.70;;;;;;;1.58;100.00;98851.66;4991036;28;20183;-61
2021/12/09 01:39:18;;;;;;;14.73;9.10;;;;;;;1.56;100.00;98846.66;4991265;28;20209;-61
2021/12/09 01:41:44;;;;;;;17.40;11.07;;;;;;;1.51;100.00;98847.72;4980266;28;20595;-61
2021/12/09 01:44:09;;;;;;;15.03;10.20;;;;;;;1.48;100.00;98848.66;4990949;28;20182;-60
2021/12/09 01:46:35;;;;;;;22.60;10.90;;;;;;;1.45;100.00;98851.28;4991225;28;20259;-60
2021/12/09 01:49:00;;;;;;;18.10;11.70;;;;;;;1.34;100.00;98844.09;4989578;28;20645;-60
2021/12/09 01:51:26;;;;;;;15.13;11.43;;;;;;;1.22;100.00;98845.38;4980319;28;20236;-61
2021/12/09 01:53:52;;;;;;;18.83;11.87;;;;;;;1.15;100.00;98843.94;4990744;28;20182;-61
2021/12/09 01:56:23;;;;;;;16.73;11.57;;;;;;;1.07;100.00;98848.47;4991006;28;20582;-61
2021/12/09 01:58:50;;;;;;;16.73;10.97;;;;;;;1.06;100.00;98847.63;4981790;28;20641;-60
2021/12/09 02:01:15;;;;;;;20.03;11.47;;;;;;;1.06;100.00;98845.09;4943896;28;20240;-61
2021/12/09 02:03:41;;;;;;;16.87;10.77;;;;;;;1.03;100.00;98842.69;4971223;28;20195;-61
2021/12/09 02:06:06;;;;;;;16.87;11.17;;;;;;;0.99;100.00;98843.66;4971435;28;20273;-60
2021/12/09 02:08:32;;;;;;;18.70;12.27;;;;;;;0.96;100.00;98844.59;4971602;28;20618;-61
2021/12/09 02:10:57;;;;;;;20.50;12.23;;;;;;;0.83;100.00;98847.59;4960621;28;20274;-61
2021/12/09 02:13:23;;;;;;;16.73;12.37;;;;;;;0.80;100.00;98844.28;4970763;28;20259;-61
2021/12/09 02:15:51;;;;;;;20.83;13.47;;;;;;;0.56;100.00;98840.91;4971041;28;20212;-61
2021/12/09 02:18:16;;;;;;;21.03;12.13;;;;;;;0.53;100.00;98846.06;5004369;28;20279;-61
2021/12/09 02:20:43;;;;;;;19.97;12.07;;;;;;;0.52;100.00;98843.59;4991364;28;20686;-60
2021/12/09 02:23:11;;;;;;;18.80;11.77;;;;;;;0.40;100.00;98850.72;5009504;28;20178;-59
2021/12/09 02:25:44;;;;;;;22.10;12.73;;;;;;;0.29;100.00;98851.06;4992718;28;20318;-60
2021/12/09 02:28:11;;;;;;;19.80;12.57;;;;;;;0.32;100.00;98845.06;5010169;28;20209;-60
2021/12/09 02:30:37;;;;;;;16.37;11.90;;;;;;;0.35;100.00;98844.13;5000880;28;20238;-60
2021/12/09 02:33:03;;;;;;;19.90;12.67;;;;;;;0.38;100.00;98849.91;5012963;28;20274;-61
2021/12/09 02:35:28;;;;;;;22.07;12.50;;;;;;;0.30;100.00;98846.84;4996065;28;20217;-62
2021/12/09 02:37:53;;;;;;;19.40;12.23;;;;;;;0.27;100.00;98845.25;4996035;28;20179;-61
2021/12/09 02:40:18;;;;;;;14.73;10.60;;;;;;;0.22;100.00;98847.06;5003173;28;20314;-61
2021/12/09 02:42:44;;;;;;;17.53;10.40;;;;;;;0.20;100.00;98850.53;5012397;28;20253;-61
2021/12/09 02:45:11;;;;;;;16.40;10.57;;;;;;;0.14;100.00;98849.03;5013424;28;20309;-58
2021/12/09 02:47:36;;;;;;;15.50;10.30;;;;;;;0.12;100.00;98843.19;5013832;28;20214;-58
2021/12/09 02:50:05;;;;;;;14.03;10.40;;;;;;;0.04;100.00;98850.19;5010300;28;20198;-58
2021/12/09 02:52:30;;;;;;;13.27;10.80;;;;;;;0.07;100.00;98850.09;5012186;28;20193;-59
2021/12/09 02:54:57;;;;;;;16.23;10.07;;;;;;;0.06;100.00;98840.84;5013229;28;20183;-59
2021/12/09 02:57:23;;;;;;;16.50;10.53;;;;;;;0.02;100.00;98834.25;5013269;28;20614;-61
2021/12/09 02:59:48;;;;;;;13.83;9.80;;;;;;;0.04;100.00;98832.47;4995886;28;20262;-59
2021/12/09 03:02:14;;;;;;;16.53;11.33;;;;;;;-0.05;100.00;98831.06;4982427;28;20235;-60
2021/12/09 03:04:41;;;;;;;18.93;10.97;;;;;;;-0.15;100.00;98840.63;4992404;28;20172;-60
2021/12/09 03:07:15;;;;;;;14.47;10.40;;;;;;;-0.15;100.00;98853.28;4993670;28;20553;-60
2021/12/09 03:09:49;;;;;;;16.33;9.97;;;;;;;-0.13;100.00;98854.06;4993191;28;20199;-60
2021/12/09 03:12:33;;;;;;;15.47;9.40;;;;;;;-0.40;100.00;98860.78;4982501;28;20231;-59
2021/12/09 03:14:59;;;;;;;15.50;10.50;;;;;;;-0.21;100.00;98858.50;4993632;28;20286;-60
2021/12/09 03:17:25;;;;;;;17.40;10.57;;;;;;;-0.25;100.00;98870.44;4982980;28;20180;-59
2021/12/09 03:19:51;;;;;;;19.27;10.73;;;;;;;-0.26;100.00;98876.38;4992496;28;20340;-59
2021/12/09 03:22:17;;;;;;;16.20;10.13;;;;;;;-0.10;100.00;98874.22;4982021;28;20262;-60
2021/12/09 03:24:43;;;;;;;21.60;11.30;;;;;;;-0.05;100.00;98884.16;4975936;28;20242;-61
2021/12/09 03:27:09;;;;;;;16.47;10.67;;;;;;;-0.06;100.00;98885.06;4993212;28;20206;-60
2021/12/09 03:29:34;;;;;;;14.07;10.10;;;;;;;0.04;100.00;98883.88;4992952;28;20463;-63
2021/12/09 03:32:06;;;;;;;16.13;10.03;;;;;;;0.04;100.00;98891.47;4965394;28;20254;-60
2021/12/09 03:34:33;;;;;;;12.37;9.20;;;;;;;0.36;100.00;98892.16;4992940;28;20183;-58
2021/12/09 03:37:03;;;;;;;17.03;10.47;;;;;;;0.41;100.00;98897.06;4992982;28;20176;-60
2021/12/09 03:39:32;;;;;;;11.67;9.50;;;;;;;0.55;100.00;98905.03;4993044;28;20172;-60
2021/12/09 03:41:58;;;;;;;13.60;9.80;;;;;;;0.70;100.00;98906.25;4980811;28;20641;-60
2021/12/09 03:44:24;;;;;;;16.13;9.80;;;;;;;0.32;100.00;98913.38;4993027;28;20172;-60
2021/12/09 03:46:52;;;;;;;15.10;9.63;;;;;;;0.52;100.00;98922.88;4992891;28;20258;-60
2021/12/09 03:49:19;;;;;;;13.90;9.87;;;;;;;0.24;100.00;98918.66;4992460;28;20720;-60
2021/12/09 03:51:44;;;;;;;16.50;9.27;;;;;;;0.44;100.00;98924.81;4981714;28;20322;-60
2021/12/09 03:54:11;;;;;;;12.10;9.33;;;;;;;0.71;100.00;98928.16;4992541;28;20266;-61
2021/12/09 03:56:38;;;;;;;14.07;9.67;;;;;;;0.79;100.00;98920.28;4992640;28;20198;-61
2021/12/09 03:59:05;;;;;;;14.63;8.93;;;;;;;0.81;100.00;98926.13;4981350;28;20191;-61
2021/12/09 04:01:30;;;;;;;12.67;8.43;;;;;;;1.07;100.00;98927.78;4940952;28;20248;-60
2021/12/09 04:03:56;;;;;;;14.20;9.00;;;;;;;1.16;100.00;98928.34;4968230;28;20210;-61
2021/12/09 04:06:21;;;;;;;14.57;9.03;;;;;;;1.22;100.00;98928.97;4973237;28;20180;-61
2021/12/09 04:08:48;;;;;;;14.43;8.80;;;;;;;1.34;100.00;98927.72;4973104;28;20169;-60
2021/12/09 04:11:15;;;;;;;12.77;8.70;;;;;;;1.46;100.00;98921.38;4962136;28;20239;-60
2021/12/09 04:13:41;;;;;;;12.03;8.07;;;;;;;1.49;100.00;98925.50;4972645;28;20439;-60
2021/12/09 04:16:09;;;;;;;11.20;8.07;;;;;;;1.55;100.00;98932.88;4962544;28;20694;-60
2021/12/09 04:18:38;;;;;;;10.70;7.60;;;;;;;1.55;100.00;98925.28;4990263;28;20552;-59
2021/12/09 04:21:04;;;;;;;12.47;7.37;;;;;;;1.49;100.00;98925.50;5000925;28;20300;-60
2021/12/09 04:23:30;;;;;;;10.80;7.07;;;;;;;1.43;100.00;98919.78;5011322;28;20191;-61
2021/12/09 04:25:57;;;;;;;11.70;6.57;;;;;;;1.39;100.00;98922.47;5011826;28;20181;-60
2021/12/09 04:28:23;;;;;;;14.90;5.47;;;;;;;1.48;100.00;98921.31;5011767;28;20184;-60
2021/12/09 04:30:48;;;;;;;14.90;7.17;;;;;;;1.36;100.00;98922.59;4980926;28;20230;-61
2021/12/09 04:33:14;;;;;;;13.43;8.03;;;;;;;1.14;100.00;98918.25;5010634;28;20619;-60
2021/12/09 04:35:39;;;;;;;13.90;8.20;;;;;;;1.09;100.00;98918.44;5011493;28;20194;-60
2021/12/09 04:38:05;;;;;;;15.13;8.20;;;;;;;1.06;100.00;98925.31;5011550;28;20179;-60
2021/12/09 04:40:30;;;;;;;11.20;8.53;;;;;;;0.93;100.00;98918.13;5000700;28;20238;-60
2021/12/09 04:42:55;;;;;;;11.53;8.17;;;;;;;0.85;100.00;98921.81;5010500;28;20232;-60
2021/12/09 04:45:21;;;;;;;11.63;7.97;;;;;;;0.91;100.00;98921.59;5011471;28;20257;-60
2021/12/09 04:47:46;;;;;;;14.20;8.83;;;;;;;0.71;100.00;98919.72;5011177;28;20202;-59
2021/12/09 04:50:12;;;;;;;16.37;9.10;;;;;;;0.58;100.00;98919.28;5000712;28;20205;-60
2021/12/09 04:52:39;;;;;;;13.13;7.87;;;;;;;0.76;100.00;98928.00;5010023;28;20605;-60
2021/12/09 04:55:06;;;;;;;12.43;7.63;;;;;;;0.88;100.00;98932.66;5010918;28;20182;-59
2021/12/09 04:57:32;;;;;;;12.13;7.33;;;;;;;0.98;100.00;98929.81;5011056;28;20194;-60
2021/12/09 04:59:57;;;;;;;26.07;18.80;;;;;;;0.88;100.00;98940.25;4992312;28;20262;-59
2021/12/09 05:02:42;;;;;;;23.57;13.63;;;;;;;0.99;100.00;98934.81;4960190;28;20594;-60
2021/12/09 05:05:09;;;;;;;21.07;12.10;;;;;;;1.09;100.00;98930.25;4988358;28;20190;-60
2021/12/09 05:07:35;;;;;;;20.73;12.53;;;;;;;1.11;100.00;98929.31;4983749;28;20243;-59
2021/12/09 05:10:00;;;;;;;16.07;11.10;;;;;;;0.90;100.00;98935.13;4990511;28;20183;-60
2021/12/09 05:12:27;;;;;;;16.80;10.70;;;;;;;0.98;100.00;98935.72;4996646;28;20571;-60
2021/12/09 05:14:52;;;;;;;18.30;10.47;;;;;;;1.13;100.00;98937.72;4991214;28;20172;-60
2021/12/09 05:17:18;;;;;;;17.47;10.53;;;;;;;0.99;100.00;98934.81;5000746;28;20186;-60
2021/12/09 05:19:44;;;;;;;14.07;9.30;;;;;;;0.89;100.00;98944.41;4992300;28;20655;-59
2021/12/09 05:22:10;;;;;;;16.57;9.80;;;;;;;1.14;100.00;98941.06;4979624;28;20671;-60
2021/12/09 05:24:37;;;;;;;13.60;9.07;;;;;;;1.07;100.00;98947.22;4991271;28;20198;-59
2021/12/09 05:27:04;;;;;;;11.73;8.47;;;;;;;1.15;100.00;98944.44;4991157;28;20175;-60
2021/12/09 05:29:36;;;;;;;15.23;8.60;;;;;;;1.15;100.00;98937.66;4990813;28;20171;-60
2021/12/09 05:32:08;;;;;;;11.87;7.43;;;;;;;0.85;100.00;98942.06;4979912;28;20249;-59
2021/12/09 05:34:38;;;;;;;12.97;7.80;;;;;;;0.73;100.00;98941.59;4991167;28;20171;-59
2021/12/09 05:37:09;;;;;;;10.10;7.37;;;;;;;0.85;100.00;98945.41;4973620;28;20587;-59
2021/12/09 05:39:36;;;;;;;10.63;7.03;;;;;;;1.03;100.00;98960.84;4990796;28;20679;-60
2021/12/09 05:42:03;;;;;;;10.47;7.10;;;;;;;1.11;100.00;98954.66;4979865;28;20235;-59
2021/12/09 05:44:29;;;;;;;10.00;7.93;;;;;;;1.19;100.00;98948.50;4991253;28;20195;-60
2021/12/09 05:46:55;;;;;;;9.37;7.40;;;;;;;1.22;100.00;98940.81;4990920;28;20608;-60
2021/12/09 05:49:21;;;;;;;10.20;7.33;;;;;;;0.99;100.00;98942.41;4990767;28;20250;-59
2021/12/09 05:51:47;;;;;;;12.93;8.23;;;;;;;0.96;100.00;98945.06;4979846;28;20313;-59
2021/12/09 05:54:13;;;;;;;10.83;7.03;;;;;;;0.98;100.00;98945.84;4990741;28;20265;-60
2021/12/09 05:56:38;;;;;;;15.53;7.10;;;;;;;0.84;100.00;98943.75;4990616;28;20191;-60
2021/12/09 05:59:05;;;;;;;13.30;7.40;;;;;;;0.67;100.00;98956.13;5001647;28;20189;-60
2021/12/09 06:01:31;;;;;;;10.30;6.80;;;;;;;0.68;100.00;98958.59;4999339;28;20258;-60
2021/12/09 06:03:56;;;;;;;10.03;6.67;;;;;;;0.72;100.00;98960.19;5010159;28;20204;-60
2021/12/09 06:06:22;;;;;;;9.70;6.60;;;;;;;0.49;100.00;98963.44;5012850;28;20214;-60
2021/12/09 06:08:47;;;;;;;14.07;6.80;;;;;;;0.23;100.00;98970.13;5014223;28;20175;-60
2021/12/09 06:11:12;;;;;;;11.80;6.67;;;;;;;0.41;100.00;98971.28;5002831;28;20346;-60
2021/12/09 06:13:38;;;;;;;11.97;6.23;;;;;;;0.49;100.00;98973.56;5013649;28;20179;-59
2021/12/09 06:16:05;;;;;;;6.83;5.43;;;;;;;0.60;100.00;98979.09;5014172;28;20179;-60
2021/12/09 06:18:31;;;;;;;8.80;5.97;;;;;;;0.74;100.00;98980.38;5002784;28;20633;-60
2021/12/09 06:20:57;;;;;;;10.47;5.93;;;;;;;0.89;100.00;98979.88;5002847;28;20231;-61
2021/12/09 06:23:23;;;;;;;10.90;6.17;;;;;;;0.92;100.00;98982.31;5013286;28;20532;-60
2021/12/09 06:25:52;;;;;;;12.23;5.87;;;;;;;0.95;100.00;98988.97;5013870;28;20643;-60
2021/12/09 06:28:18;;;;;;;13.77;6.00;;;;;;;1.00;100.00;98996.44;5013882;28;20213;-60
2021/12/09 06:30:44;;;;;;;13.43;6.03;;;;;;;0.87;100.00;98986.69;5003069;28;20301;-59
2021/12/09 06:33:10;;;;;;;9.30;5.83;;;;;;;0.80;100.00;98997.91;5012919;28;20206;-60
2021/12/09 06:35:35;;;;;;;9.20;6.60;;;;;;;0.75;100.00;98999.75;5013793;28;20611;-60
2021/12/09 06:38:01;;;;;;;12.43;6.07;;;;;;;0.48;100.00;98999.72;4995979;28;20178;-60
2021/12/09 06:40:27;;;;;;;13.70;5.80;;;;;;;0.52;100.00;99001.31;5002804;28;20234;-60
2021/12/09 06:42:53;;;;;;;8.23;5.43;;;;;;;0.62;100.00;99017.00;5010931;28;20182;-60
2021/12/09 06:45:21;;;;;;;8.20;5.30;;;;;;;0.63;100.00;99009.41;4992993;28;20183;-60
2021/12/09 06:47:47;;;;;;;9.87;5.10;;;;;;;0.42;100.00;99010.03;4992266;28;20252;-60
2021/12/09 06:50:16;;;;;;;15.27;6.33;;;;;;;0.12;100.00;99005.84;4982366;28;20286;-60
2021/12/09 06:52:42;;;;;;;12.73;5.70;;;;;;;0.12;100.00;99013.44;4977061;28;20689;-60
2021/12/09 06:55:10;;;;;;;12.13;6.43;;;;;;;-0.09;100.00;99021.66;4965236;28;20176;-60
2021/12/09 06:57:36;;;;;;;12.53;5.80;;;;;;;0.06;100.00;99023.72;4971676;28;20191;-60
2021/12/09 07:00:05;;;;;;;14.43;6.27;;;;;;;0.12;100.00;99018.50;4989214;28;20184;-61
2021/12/09 07:02:31;;;;;;;12.20;5.93;;;;;;;0.06;100.00;99020.38;4982289;28;20196;-61
2021/12/09 07:04:56;;;;;;;9.20;5.77;;;;;;;0.12;100.00;99030.31;4991613;28;20887;-60
2021/12/09 07:07:21;;;;;;;10.17;5.73;;;;;;;0.18;100.00;99035.19;4987663;28;20180;-60
2021/12/09 07:09:47;;;;;;;11.67;6.23;;;;;;;0.21;100.00;99031.75;4989917;28;20190;-60
2021/12/09 07:12:12;;;;;;;8.63;6.53;;;;;;;0.17;100.00;99036.06;4974504;28;20282;-60
2021/12/09 07:14:39;;;;;;;10.03;6.50;;;;;;;0.01;100.00;99035.66;4979374;28;20184;-60
2021/12/09 07:17:04;;;;;;;14.23;7.73;;;;;;;0.00;100.00;99044.16;4994737;28;20183;-60
2021/12/09 07:19:30;;;;;;;13.73;9.17;;;;;;;0.07;100.00;99049.84;4993068;28;20180;-60
2021/12/09 07:21:55;;;;;;;16.97;9.23;;;;;;;0.14;100.00;99058.94;4967528;28;20234;-60
2021/12/09 07:24:20;;;;;;;14.43;8.57;;;;;;;0.26;100.00;99057.72;4988679;28;20175;-61
2021/12/09 07:26:45;;;;;;;18.33;9.90;;;;;;;0.32;100.00;99055.03;4986745;28;20226;-60
2021/12/09 07:29:11;;;;;;;16.07;10.37;;;;;;;0.36;100.00;99051.56;4985506;28;20692;-60
2021/12/09 07:31:36;;;;;;;12.30;9.27;;;;;;;0.48;100.00;99051.19;4977367;28;20994;-59
2021/12/09 07:34:02;;;;;;;11.57;9.57;;;;;;;0.51;100.00;99051.94;4988167;28;20675;-60
2021/12/09 07:36:27;;;;;;;13.67;9.30;;;;;;;0.62;100.00;99058.34;4981916;28;20195;-61
2021/12/09 07:38:53;;;;;;;13.83;9.30;;;;;;;0.70;100.00;99064.91;4994072;28;20179;-60
2021/12/09 07:41:18;;;;;;;15.07;9.70;;;;;;;0.71;100.00;99066.53;4982017;28;20227;-61
2021/12/09 07:43:45;;;;;;;17.63;10.07;;;;;;;0.82;100.00;99064.50;4983306;28;20559;-60
2021/12/09 07:46:11;;;;;;;16.60;9.73;;;;;;;0.92;100.00;99077.72;4989647;28;20176;-60
2021/12/09 07:48:36;;;;;;;14.63;9.97;;;;;;;1.04;100.00;99072.25;4991784;28;20664;-60
2021/12/09 07:51:02;;;;;;;13.57;9.37;;;;;;;1.10;100.00;99078.81;4992707;28;20693;-59
2021/12/09 07:53:28;;;;;;;15.63;9.30;;;;;;;1.17;100.00;99082.00;4979686;28;20212;-60
2021/12/09 07:55:54;;;;;;;12.13;9.00;;;;;;;1.21;100.00;99086.09;4982434;28;20180;-60
2021/12/09 07:58:19;;;;;;;11.50;9.73;;;;;;;1.28;100.00;99075.69;4983393;28;20862;-60
2021/12/09 08:00:46;;;;;;;12.85;10.00;;;;;;;1.54;100.00;99076.53;4978350;28;20532;-61
2021/12/09 08:03:12;;;;;;;12.63;8.37;;;;;;;1.62;100.00;99073.72;4983660;28;20634;-61
2021/12/09 08:05:41;;;;;;;10.13;8.17;;;;;;;1.39;100.00;99082.94;4979330;28;20303;-61
2021/12/09 08:08:07;;;;;;;11.13;8.43;;;;;;;1.47;100.00;99084.41;4981068;28;20215;-61
2021/12/09 08:10:33;;;;;;;13.80;8.23;;;;;;;1.35;100.00;99090.69;4962497;28;20351;-61
2021/12/09 08:12:59;;;;;;;11.97;8.03;;;;;;;1.17;100.00;99098.03;4971925;28;20227;-61
2021/12/09 08:15:34;;;;;;;10.43;7.27;;;;;;;1.41;100.00;99106.50;4962815;28;20303;-61
2021/12/09 08:18:04;;;;;;;13.73;7.33;;;;;;;1.35;100.00;99099.13;4997804;28;20187;-60
2021/12/09 08:20:32;;;;;;;11.18;8.48;;;;;;;1.54;100.00;99103.56;4981449;28;20536;-59
2021/12/09 08:22:58;;;;;;;15.07;8.23;;;;;;;1.36;100.00;99103.31;4991392;28;20176;-59
2021/12/09 08:25:24;;;;;;;11.33;6.97;;;;;;;1.54;100.00;99103.56;4992088;28;20233;-60
2021/12/09 08:27:50;;;;;;;9.73;7.33;;;;;;;1.53;100.00;99107.81;4991655;28;20221;-60
2021/12/09 08:30:19;;;;;;;12.67;7.07;;;;;;;1.64;100.00;99106.63;4960373;28;20188;-60
2021/12/09 08:32:44;;;;;;;12.30;7.10;;;;;;;1.56;100.00;99110.28;4976397;28;20182;-61
2021/12/09 08:35:10;;;;;;;9.80;6.40;;;;;;;1.55;100.00;99098.47;4992025;28;20166;-62
2021/12/09 08:37:36;;;;;;;11.13;6.90;;;;;;;1.52;100.00;99103.63;4992963;28;20176;-61
2021/12/09 08:40:03;;;;;;;14.27;6.43;;;;;;;1.56;100.00;99101.81;5012257;28;20187;-61
2021/12/09 08:42:28;;;;;;;8.70;6.53;;;;;;;1.54;100.00;99104.41;4984395;28;20231;-60
2021/12/09 08:44:54;;;;;;;8.50;5.80;;;;;;;1.55;100.00;99103.53;5012232;28;20232;-60
2021/12/09 08:47:20;;;;;;;9.80;6.60;;;;;;;1.75;100.00;99097.78;5012753;28;20200;-60
2021/12/09 08:49:45;;;;;;;10.30;5.40;;;;;;;1.66;100.00;99097.28;5011117;28;20173;-61
2021/12/09 08:52:11;;;;;;;11.90;6.47;;;;;;;1.69;100.00;99095.47;4988768;28;20222;-61
2021/12/09 08:54:37;;;;;;;7.40;4.90;;;;;;;1.65;100.00;99093.09;4986188;28;20640;-61
2021/12/09 08:57:04;;;;;;;9.47;6.03;;;;;;;1.70;100.00;99088.69;4971949;28;20186;-61
2021/12/09 08:59:30;;;;;;;9.07;5.80;;;;;;;1.72;100.00;99095.34;4981004;28;20220;-61
2021/12/09 09:01:56;;;;;;;11.33;6.13;;;;;;;1.89;100.00;99099.03;4980602;28;20699;-61
2021/12/09 09:04:21;;;;;;;9.77;5.83;;;;;;;2.06;100.00;99100.94;4992583;28;20173;-61
2021/12/09 09:06:52;;;;;;;12.87;5.77;;;;;;;2.20;100.00;99101.28;4993488;28;20230;-61
2021/12/09 09:09:18;;;;;;;6.53;4.87;;;;;;;2.13;100.00;99099.03;4992120;28;20172;-61
2021/12/09 09:11:43;;;;;;;8.70;5.37;;;;;;;2.28;100.00;99098.47;4982111;28;20227;-61
2021/12/09 09:14:08;;;;;;;9.07;4.77;;;;;;;2.41;99.94;99111.56;4991207;28;20193;-61
2021/12/09 09:16:34;;;;;;;10.03;4.80;;;;;;;2.37;99.15;99117.59;4991186;28;20200;-61
2021/12/09 09:18:59;;;;;;;8.10;4.67;;;;;;;2.54;98.89;99117.84;4978952;28;20209;-61
2021/12/09 09:21:25;;;;;;;6.73;4.57;;;;;;;2.33;98.46;99126.22;4980976;28;20325;-61
2021/12/09 09:23:51;;;;;;;7.23;3.70;;;;;;;2.62;98.64;99130.25;4992763;28;20530;-60
2021/12/09 09:26:17;;;;;;;5.87;4.70;;;;;;;2.90;97.65;99137.66;4991341;28;20179;-61
2021/12/09 09:28:42;;;;;;;6.40;4.13;;;;;;;3.06;96.84;99137.03;4991325;28;20178;-60
2021/12/09 09:31:08;;;;;;;6.73;4.00;;;;;;;2.76;94.55;99139.06;4989368;28;20257;-60
2021/12/09 09:33:34;;;;;;;10.50;4.00;;;;;;;2.62;94.78;99142.09;4997987;28;20182;-59
2021/12/09 09:36:00;;;;;;;10.37;4.07;;;;;;;2.74;94.92;99139.94;4991354;28;20174;-60
2021/12/09 09:38:26;;;;;;;8.23;3.93;;;;;;;2.48;94.78;99130.75;4998745;28;20265;-60
2021/12/09 09:41:09;;;;;;;5.47;3.30;;;;;;;2.56;94.33;99140.63;5003070;28;20744;-61
2021/12/09 09:46:13;;;;;;;5.93;3.10;;;;;;;2.78;93.83;99139.81;5014891;28;20174;-61
2021/12/09 09:48:40;;;;;;;5.57;3.30;;;;;;;2.86;93.55;99140.34;5014477;28;20255;-61
2021/12/09 09:51:09;;;;;;;6.87;3.30;;;;;;;2.81;93.55;99137.16;5003810;28;20219;-61
2021/12/09 09:53:36;;;;;;;6.20;3.60;;;;;;;3.19;93.56;99137.41;5014026;28;20256;-61
2021/12/09 09:56:04;;;;;;;9.93;4.20;;;;;;;3.44;91.88;99128.78;5014308;28;20692;-61
2021/12/09 09:58:30;;;;;;;9.10;4.37;;;;;;;3.58;90.63;99133.31;5007906;28;20625;-61
2021/12/09 10:00:55;;;;;;;6.13;4.00;;;;;;;3.57;89.22;99127.38;4966982;28;20230;-61
2021/12/09 10:03:27;;;;;;;7.00;4.60;;;;;;;3.78;89.16;99130.75;4994300;28;20640;-60
2021/12/09 10:05:57;;;;;;;6.33;4.23;;;;;;;3.96;88.27;99133.41;4994632;28;20168;-60
2021/12/09 10:08:23;;;;;;;9.23;5.53;;;;;;;3.94;87.36;99132.66;4994708;28;20244;-61
2021/12/09 10:10:48;;;;;;;7.73;4.43;;;;;;;4.00;86.84;99132.38;4979037;28;20361;-61
2021/12/09 10:13:15;;;;;;;7.23;4.70;;;;;;;3.74;86.63;99128.41;5000425;28;20784;-62
2021/12/09 10:15:50;;;;;;;8.83;4.40;;;;;;;3.52;87.56;99114.03;4995060;28;20513;-62
2021/12/09 10:18:35;;;;;;;5.47;4.27;;;;;;;3.91;86.99;99112.41;4988293;28;20199;-61
2021/12/09 10:21:02;;;;;;;9.67;4.53;;;;;;;4.48;86.64;99109.94;4964272;28;20701;-62
2021/12/09 10:23:48;;;;;;;9.63;4.47;;;;;;;4.60;84.39;99100.91;4974345;28;20662;-61
2021/12/09 10:26:27;;;;;;;7.03;4.07;;;;;;;4.39;83.49;99100.16;4979408;28;20218;-60
2021/12/09 10:29:16;;;;;;;6.33;4.33;;;;;;;4.12;83.22;99095.38;4984273;28;20258;-61
2021/12/09 10:31:56;;;;;;;6.13;4.30;;;;;;;4.26;84.21;99087.97;4964089;28;20339;-61
2021/12/09 10:34:37;;;;;;;8.13;3.87;;;;;;;3.92;84.00;99083.53;4977292;28;20184;-61
2021/12/09 10:37:28;;;;;;;9.20;4.37;;;;;;;4.01;84.53;99089.06;4990579;28;20178;-61
2021/12/09 10:39:57;;;;;;;12.07;4.07;;;;;;;4.01;85.26;99091.59;4992097;28;20175;-61
2021/12/09 10:42:33;;;;;;;7.60;4.43;;;;;;;3.79;85.95;99095.97;4991423;28;20235;-61
2021/12/09 10:45:07;;;;;;;9.53;4.27;;;;;;;3.78;86.14;99091.78;4989414;28;21546;-61
2021/12/09 10:50:36;;;;;;;6.77;4.63;;;;;;;3.60;86.92;99091.66;4976115;28;20180;-61
2021/12/09 10:56:04;;;;;;;10.77;5.10;;;;;;;3.57;87.84;99096.03;4985580;28;20218;-61
2021/12/09 10:58:42;;;;;;;10.07;5.47;;;;;;;3.91;87.44;99095.44;4981657;28;20175;-61
2021/12/09 11:01:16;;;;;;;9.77;4.90;;;;;;;3.86;86.65;99094.81;4983883;28;20414;-61
2021/12/09 11:03:53;;;;;;;10.07;5.67;;;;;;;3.84;87.14;99089.78;4967556;28;20177;-62
2021/12/09 11:06:23;;;;;;;7.27;5.27;;;;;;;3.86;87.66;99097.38;4993437;28;20198;-61
2021/12/09 11:08:50;;;;;;;8.93;5.33;;;;;;;3.97;86.90;99095.19;4985994;28;20258;-62
2021/12/09 11:11:30;;;;;;;10.67;5.50;;;;;;;4.03;86.07;99101.69;4992645;28;20225;-61
2021/12/09 11:14:09;;;;;;;6.63;4.57;;;;;;;3.98;86.59;99099.38;4965131;28;20647;-64
2021/12/09 11:16:38;;;;;;;11.17;4.83;;;;;;;4.21;85.47;99089.91;4989223;28;20645;-61
2021/12/09 11:19:07;;;;;;;6.53;4.43;;;;;;;4.40;84.16;99089.88;4991166;28;20233;-62
2021/12/09 11:21:37;;;;;;;7.57;4.20;;;;;;;4.42;83.54;99100.03;4975742;28;20611;-61
2021/12/09 11:24:08;;;;;;;9.27;3.97;;;;;;;4.16;83.39;99112.19;4984768;28;20297;-61
2021/12/09 11:27:02;;;;;;;6.77;4.43;;;;;;;4.08;84.42;99106.59;4992613;28;20652;-61
2021/12/09 11:29:44;;;;;;;7.83;3.63;;;;;;;4.27;84.90;99111.72;4981771;28;20207;-61
2021/12/09 11:32:27;;;;;;;6.63;4.00;;;;;;;4.03;84.52;99106.78;4972961;28;20255;-61
2021/12/09 11:35:02;;;;;;;11.53;3.70;;;;;;;3.85;85.06;99116.06;4991710;28;20552;-60
2021/12/09 11:40:01;;;;;;;7.30;3.57;;;;;;;4.06;84.23;99121.94;4991240;28;20191;-60